createdAt,value
2022-09-22T00:01:19.032Z,2.78
2022-09-22T00:04:24.118Z,2.55
2022-09-22T00:07:29.559Z,2.13
2022-09-22T00:10:33.615Z,1.77
2022-09-22T00:13:38.460Z,1.67
2022-09-22T00:16:52.480Z,1.95
2022-09-22T00:19:57.051Z,1.75
2022-09-22T00:23:01.629Z,1.58
2022-09-22T00:26:10.408Z,2.42
2022-09-22T00:29:17.066Z,1.00
2022-09-22T00:32:21.811Z,1.00
2022-09-22T00:35:26.297Z,3.42
2022-09-22T00:38:31.589Z,1.10
2022-09-22T00:41:40.668Z,1.42
2022-09-22T00:44:45.280Z,1.23
2022-09-22T00:47:51.002Z,1.55
2022-09-22T00:50:58.170Z,1.88
2022-09-22T00:54:08.712Z,1.65
2022-09-22T00:57:23.181Z,1.52
2022-09-22T01:00:28.081Z,2.40
2022-09-22T01:03:32.994Z,0.80
2022-09-22T01:06:39.746Z,1.67
2022-09-22T01:09:44.545Z,2.58
2022-09-22T01:13:07.250Z,1.33
2022-09-22T01:16:24.796Z,1.63
2022-09-22T01:20:07.144Z,1.83
2022-09-22T01:24:13.114Z,0.68
2022-09-22T01:27:32.888Z,1.38
2022-09-22T01:30:41.820Z,1.55
2022-09-22T01:33:52.184Z,0.90
2022-09-22T01:37:14.662Z,2.08
2022-09-22T01:40:42.688Z,1.30
2022-09-22T01:44:02.010Z,0.73
2022-09-22T01:47:28.331Z,1.23
2022-09-22T01:51:18.228Z,1.70
2022-09-22T01:54:29.502Z,1.77
2022-09-22T01:57:57.519Z,1.17
2022-09-22T02:01:14.958Z,1.17
2022-09-22T02:04:29.651Z,1.70
2022-09-22T02:07:39.952Z,1.17
2022-09-22T02:10:47.583Z,1.42
2022-09-22T02:13:53.065Z,2.17
2022-09-22T02:16:59.525Z,0.73
2022-09-22T02:20:06.516Z,1.10
2022-09-22T02:23:11.110Z,1.33
2022-09-22T02:26:24.063Z,1.40
2022-09-22T02:29:33.997Z,1.15
2022-09-22T02:32:42.797Z,1.63
2022-09-22T02:35:52.376Z,1.70
2022-09-22T02:39:10.010Z,1.30
2022-09-22T02:42:17.642Z,0.95
2022-09-22T02:45:54.994Z,1.42
2022-09-22T02:49:11.583Z,1.10
2022-09-22T02:52:21.289Z,1.00
2022-09-22T02:55:26.189Z,1.13
2022-09-22T02:58:30.683Z,1.20
2022-09-22T03:01:36.518Z,1.55
2022-09-22T03:04:40.756Z,2.67
2022-09-22T03:07:45.199Z,1.05
2022-09-22T03:10:49.388Z,2.35
2022-09-22T03:13:54.682Z,0.88
2022-09-22T03:16:59.069Z,1.02
2022-09-22T03:20:06.167Z,1.15
2022-09-22T03:23:10.477Z,1.05
2022-09-22T03:26:14.901Z,0.70
2022-09-22T03:29:19.654Z,0.90
2022-09-22T03:32:24.404Z,1.50
2022-09-22T03:35:29.103Z,1.42
2022-09-22T03:38:33.736Z,1.30
2022-09-22T03:41:38.194Z,1.48
2022-09-22T03:44:42.705Z,1.00
2022-09-22T03:47:47.516Z,0.50
2022-09-22T03:50:52.467Z,1.17
2022-09-22T03:53:56.983Z,1.50
2022-09-22T03:57:01.390Z,2.00
2022-09-22T04:00:07.241Z,1.23
2022-09-22T04:03:16.576Z,1.48
2022-09-22T04:06:21.732Z,1.58
2022-09-22T04:09:26.181Z,1.45
2022-09-22T04:12:30.916Z,1.02
2022-09-22T04:15:35.491Z,0.88
2022-09-22T04:18:40.247Z,2.03
2022-09-22T04:21:45.323Z,1.00
2022-09-22T04:24:49.994Z,2.58
2022-09-22T04:27:54.711Z,1.00
2022-09-22T04:30:59.012Z,0.70
2022-09-22T04:34:07.495Z,1.10
2022-09-22T04:37:12.290Z,0.80
2022-09-22T04:40:18.225Z,1.00
2022-09-22T04:43:22.756Z,0.85
2022-09-22T04:46:27.693Z,0.63
2022-09-22T04:49:32.467Z,3.45
2022-09-22T04:52:36.789Z,1.13
2022-09-22T04:55:41.200Z,1.10
2022-09-22T04:58:45.778Z,1.38
2022-09-22T05:01:50.128Z,1.17
2022-09-22T05:04:54.407Z,0.80
2022-09-22T05:07:58.999Z,1.65
2022-09-22T05:11:06.615Z,0.88
2022-09-22T05:14:12.665Z,2.00
2022-09-22T05:17:17.262Z,1.70
2022-09-22T05:20:21.847Z,1.23
2022-09-22T05:23:26.494Z,2.08
2022-09-22T05:26:31.079Z,1.52
2022-09-22T05:29:35.385Z,2.78
2022-09-22T05:32:44.361Z,1.23
2022-09-22T05:35:48.888Z,1.60
2022-09-22T05:38:53.211Z,0.95
2022-09-22T05:41:57.692Z,1.65
2022-09-22T05:45:02.307Z,1.38
2022-09-22T05:48:06.840Z,1.23
2022-09-22T05:51:11.194Z,0.80
2022-09-22T05:54:18.969Z,1.77
2022-09-22T05:57:27.483Z,2.00
2022-09-22T06:00:32.895Z,2.42
2022-09-22T06:03:37.344Z,1.42
2022-09-22T06:06:42.394Z,1.45
2022-09-22T06:09:48.448Z,1.95
2022-09-22T06:13:01.845Z,1.00
2022-09-22T06:16:07.157Z,2.28
2022-09-22T06:19:11.535Z,1.70
2022-09-22T06:22:17.979Z,1.90
2022-09-22T06:25:23.558Z,2.35
2022-09-22T06:28:28.247Z,2.45
2022-09-22T06:31:33.005Z,2.08
2022-09-22T06:34:38.051Z,2.28
2022-09-22T06:37:42.869Z,1.80
2022-09-22T06:40:47.664Z,3.25
2022-09-22T06:43:56.139Z,1.83
2022-09-22T06:47:05.450Z,1.52
2022-09-22T06:50:10.098Z,1.42
2022-09-22T06:53:14.746Z,1.67
2022-09-22T06:56:20.316Z,1.52
2022-09-22T06:59:24.716Z,2.00
2022-09-22T07:02:30.446Z,1.25
2022-09-22T07:05:37.030Z,2.30
2022-09-22T07:08:41.636Z,3.03
2022-09-22T07:11:47.364Z,2.63
2022-09-22T07:14:53.362Z,5.00
2022-09-22T07:17:57.988Z,3.22
2022-09-22T07:21:08.437Z,3.20
2022-09-22T07:24:13.507Z,3.33
2022-09-22T07:27:26.217Z,3.55
2022-09-22T07:30:36.210Z,3.38
2022-09-22T07:33:43.599Z,3.85
2022-09-22T07:36:49.342Z,4.05
2022-09-22T07:39:54.458Z,4.55
2022-09-22T07:42:59.659Z,3.30
2022-09-22T07:46:05.421Z,4.03
2022-09-22T07:49:09.882Z,3.13
2022-09-22T07:52:14.804Z,3.70
2022-09-22T07:55:24.931Z,3.33
2022-09-22T07:58:30.816Z,4.13
2022-09-22T08:01:44.477Z,3.30
2022-09-22T08:07:58.273Z,3.50
2022-09-22T08:11:17.335Z,3.65
2022-09-22T08:14:23.133Z,3.40
2022-09-22T08:17:27.462Z,3.63
2022-09-22T08:20:31.892Z,3.92
2022-09-22T08:23:39.826Z,2.72
2022-09-22T08:26:48.139Z,3.90
2022-09-22T08:29:53.097Z,4.25
2022-09-22T08:33:00.723Z,4.63
2022-09-22T08:36:05.787Z,3.03
2022-09-22T08:39:10.352Z,5.00
2022-09-22T08:42:22.876Z,4.35
2022-09-22T08:45:33.326Z,4.38
2022-09-22T08:48:59.540Z,3.95
2022-09-22T08:52:50.041Z,4.68
2022-09-22T08:56:23.188Z,3.35
2022-09-22T08:59:39.688Z,3.15
2022-09-22T09:03:16.541Z,2.40
2022-09-22T09:07:10.250Z,2.75
2022-09-22T09:10:51.821Z,2.47
2022-09-22T09:15:09.746Z,3.28
2022-09-22T09:18:20.133Z,1.88
2022-09-22T09:21:26.605Z,3.03
2022-09-22T09:28:06.687Z,1.92
2022-09-22T09:31:31.541Z,2.40
2022-09-22T09:34:36.047Z,2.08
2022-09-22T09:37:44.864Z,2.40
2022-09-22T09:40:58.769Z,2.05
2022-09-22T09:44:05.244Z,2.42
2022-09-22T09:47:45.847Z,2.05
2022-09-22T09:50:50.857Z,1.65
2022-09-22T09:53:56.934Z,2.28
2022-09-22T09:57:17.377Z,3.38
2022-09-22T10:00:31.736Z,2.25
2022-09-22T10:03:46.969Z,1.83
2022-09-22T10:06:51.720Z,1.67
2022-09-22T10:10:16.708Z,1.45
2022-09-22T10:13:29.629Z,3.00
2022-09-22T10:16:36.050Z,1.08
2022-09-22T10:19:40.418Z,1.98
2022-09-22T10:22:45.478Z,2.40
2022-09-22T10:25:50.919Z,3.55
2022-09-22T10:29:13.034Z,0.75
2022-09-22T10:32:17.934Z,0.93
2022-09-22T10:35:29.275Z,1.27
2022-09-22T10:38:42.275Z,1.77
2022-09-22T10:41:48.561Z,1.25
2022-09-22T10:45:07.026Z,2.13
2022-09-22T10:48:50.566Z,1.13
2022-09-22T10:52:08.459Z,0.98
2022-09-22T10:55:54.108Z,1.02
2022-09-22T10:59:16.560Z,1.48
2022-09-22T11:05:58.993Z,0.93
2022-09-22T11:09:56.300Z,0.98
2022-09-22T11:13:46.577Z,1.50
2022-09-22T11:17:08.663Z,1.85
2022-09-22T11:20:39.800Z,1.90
2022-09-22T11:24:08.989Z,1.42
2022-09-22T11:27:37.676Z,2.20
2022-09-22T11:30:51.046Z,1.55
2022-09-22T11:34:23.265Z,1.90
2022-09-22T11:38:02.062Z,1.25
2022-09-22T11:41:51.309Z,2.92
2022-09-22T11:45:21.903Z,2.38
2022-09-22T11:48:50.206Z,0.50
2022-09-22T11:52:17.818Z,0.55
2022-09-22T11:55:56.698Z,0.70
2022-09-22T11:59:13.871Z,1.30
2022-09-22T12:02:37.313Z,1.13
2022-09-22T12:09:09.011Z,0.82
2022-09-22T12:12:22.166Z,2.53
2022-09-22T12:15:58.735Z,0.47
2022-09-22T12:19:29.457Z,1.35
2022-09-22T12:23:16.185Z,1.38
2022-09-22T12:26:34.098Z,1.35
2022-09-22T12:29:39.554Z,1.80
2022-09-22T12:32:45.846Z,1.70
2022-09-22T12:35:55.856Z,1.05
2022-09-22T12:39:31.346Z,1.75
2022-09-22T12:42:40.470Z,1.55
2022-09-22T12:45:44.960Z,1.70
2022-09-22T12:48:49.525Z,0.80
2022-09-22T12:51:54.539Z,0.47
2022-09-22T12:55:27.999Z,0.70
2022-09-22T13:04:56.571Z,2.13
2022-09-22T13:08:01.559Z,1.67
2022-09-22T13:11:08.660Z,0.77
2022-09-22T13:14:57.072Z,1.20
2022-09-22T13:18:01.446Z,0.77
2022-09-22T13:21:14.824Z,0.47
2022-09-22T13:24:25.027Z,0.55
2022-09-22T13:27:31.775Z,1.08
2022-09-22T13:30:38.360Z,0.57
2022-09-22T13:33:43.689Z,1.23
2022-09-22T13:36:49.462Z,1.50
2022-09-22T13:39:54.867Z,1.60
2022-09-22T13:43:06.020Z,1.42
2022-09-22T13:46:36.839Z,0.68
2022-09-22T13:49:45.014Z,1.40
2022-09-22T13:52:51.261Z,0.90
2022-09-22T13:55:57.126Z,1.25
2022-09-22T13:59:02.940Z,1.40
2022-09-22T14:02:13.220Z,2.08
2022-09-22T14:05:23.444Z,0.95
2022-09-22T14:08:32.807Z,0.70
2022-09-22T14:11:37.456Z,2.25
2022-09-22T14:14:41.804Z,2.63
2022-09-22T14:17:46.466Z,0.98
2022-09-22T14:20:55.012Z,1.42
2022-09-22T14:24:01.066Z,1.33
2022-09-22T14:27:23.866Z,1.60
2022-09-22T14:30:31.163Z,1.83
2022-09-22T14:33:35.941Z,1.60
2022-09-22T14:36:45.079Z,1.48
2022-09-22T14:39:51.641Z,0.90
2022-09-22T14:43:09.078Z,1.23
2022-09-22T14:46:41.363Z,0.70
2022-09-22T14:49:48.219Z,1.45
2022-09-22T14:53:06.866Z,1.30
2022-09-22T14:56:28.224Z,1.80
2022-09-22T14:59:55.885Z,2.97
2022-09-22T15:03:02.944Z,1.85
2022-09-22T15:06:10.800Z,1.77
2022-09-22T15:09:40.547Z,1.05
2022-09-22T15:12:49.635Z,2.58
2022-09-22T15:15:54.256Z,1.25
2022-09-22T15:18:58.228Z,0.80
2022-09-22T15:22:03.815Z,0.70
2022-09-22T15:25:16.203Z,1.98
2022-09-22T15:28:23.856Z,1.45
2022-09-22T15:31:29.746Z,1.27
2022-09-22T15:34:34.493Z,1.83
2022-09-22T15:37:39.525Z,1.55
2022-09-22T15:40:45.332Z,1.58
2022-09-22T15:43:50.227Z,0.55
2022-09-22T15:46:54.959Z,0.73
2022-09-22T15:50:00.449Z,1.45
2022-09-22T15:53:05.391Z,0.75
2022-09-22T15:56:19.019Z,1.17
2022-09-22T15:59:33.397Z,1.25
2022-09-22T16:02:40.583Z,0.88
2022-09-22T16:05:45.045Z,0.90
2022-09-22T16:08:52.509Z,1.27
2022-09-22T16:11:57.202Z,2.03
2022-09-22T16:15:02.751Z,1.95
2022-09-22T16:18:08.567Z,1.20
2022-09-22T16:21:35.278Z,1.10
2022-09-22T16:24:39.668Z,1.35
2022-09-22T16:27:44.062Z,1.35
2022-09-22T16:30:48.689Z,0.95
2022-09-22T16:33:57.481Z,0.98
2022-09-22T16:37:02.287Z,1.65
2022-09-22T16:40:07.822Z,1.48
2022-09-22T16:43:13.162Z,0.85
2022-09-22T16:46:28.319Z,0.82
2022-09-22T16:49:34.109Z,2.08
2022-09-22T16:52:38.974Z,0.43
2022-09-22T16:55:49.752Z,0.60
2022-09-22T16:58:55.667Z,1.67
2022-09-22T17:02:00.866Z,0.45
2022-09-22T17:05:07.013Z,4.65
2022-09-22T17:08:11.486Z,1.27
2022-09-22T17:11:17.637Z,0.80
2022-09-22T17:14:22.979Z,0.65
2022-09-22T17:17:27.604Z,0.50
2022-09-22T17:20:32.480Z,1.73
2022-09-22T17:23:40.123Z,0.80
2022-09-22T17:26:50.205Z,1.48
2022-09-22T17:29:54.729Z,0.80
2022-09-22T17:33:00.894Z,0.60
2022-09-22T17:36:06.145Z,1.20
2022-09-22T17:39:11.624Z,1.05
2022-09-22T17:42:16.217Z,0.98
2022-09-22T17:45:20.457Z,0.75
2022-09-22T17:48:43.260Z,1.58
2022-09-22T17:52:10.283Z,0.75
2022-09-22T17:55:21.214Z,1.63
2022-09-22T17:58:26.002Z,0.70
2022-09-22T18:01:30.762Z,2.78
2022-09-22T18:04:38.938Z,0.90
2022-09-22T18:07:43.939Z,0.85
2022-09-22T18:10:48.746Z,1.90
2022-09-22T18:13:56.152Z,1.55
2022-09-22T18:17:05.087Z,2.10
2022-09-22T18:20:18.011Z,1.55
2022-09-22T18:23:25.543Z,1.38
2022-09-22T18:26:38.194Z,1.23
2022-09-22T18:29:42.745Z,1.95
2022-09-22T18:32:48.850Z,1.45
2022-09-22T18:35:53.182Z,2.25
2022-09-22T18:38:58.052Z,3.15
2022-09-22T18:42:02.680Z,5.43
2022-09-22T18:45:07.926Z,2.60
2022-09-22T18:48:12.284Z,2.72
2022-09-22T18:51:17.251Z,3.55
2022-09-22T18:54:22.126Z,3.17
2022-09-22T18:57:27.250Z,2.72
2022-09-22T19:00:31.740Z,3.03
2022-09-22T19:03:36.228Z,3.92
2022-09-22T19:06:59.466Z,3.75
2022-09-22T19:10:04.258Z,4.22
2022-09-22T19:13:08.756Z,4.57
2022-09-22T19:16:14.045Z,4.80
2022-09-22T19:19:21.889Z,5.28
2022-09-22T19:22:27.323Z,12.57
2022-09-22T19:25:32.470Z,5.13
2022-09-22T19:28:37.007Z,9.05
2022-09-22T19:31:43.430Z,5.18
2022-09-22T19:34:51.489Z,4.38
2022-09-22T19:37:55.912Z,4.57
2022-09-22T19:41:00.781Z,4.75
2022-09-22T19:44:05.559Z,3.97
2022-09-22T19:47:10.204Z,3.95
2022-09-22T19:50:16.428Z,4.60
2022-09-22T19:53:21.045Z,3.65
2022-09-22T19:56:25.889Z,5.25
2022-09-22T19:59:30.306Z,6.00
2022-09-22T20:02:34.783Z,4.68
2022-09-22T20:05:40.193Z,4.55
2022-09-22T20:08:44.762Z,4.55
2022-09-22T20:11:50.127Z,4.70
2022-09-22T20:14:54.576Z,5.78
2022-09-22T20:17:59.255Z,4.28
2022-09-22T20:21:04.753Z,4.50
2022-09-22T20:24:13.873Z,4.20
2022-09-22T20:27:18.963Z,5.57
2022-09-22T20:30:27.492Z,4.95
2022-09-22T20:33:33.344Z,6.07
2022-09-22T20:36:38.270Z,4.40
2022-09-22T20:39:42.906Z,6.25
2022-09-22T20:42:48.707Z,5.88
2022-09-22T20:46:04.464Z,5.88
2022-09-22T20:49:14.587Z,8.70
2022-09-22T20:52:20.613Z,6.78
2022-09-22T20:55:29.147Z,6.80
2022-09-22T20:58:40.640Z,7.32
2022-09-22T21:01:47.056Z,6.80
2022-09-22T21:04:52.311Z,7.63
2022-09-22T21:08:16.629Z,9.50
2022-09-22T21:11:21.609Z,10.70
2022-09-22T21:14:26.775Z,11.50
2022-09-22T21:17:32.889Z,12.52
2022-09-22T21:20:40.940Z,10.32
2022-09-22T21:23:47.713Z,11.90
2022-09-22T21:26:52.321Z,10.15
2022-09-22T21:29:56.667Z,10.32
2022-09-22T21:33:02.656Z,9.50
2022-09-22T21:36:14.069Z,9.93
2022-09-22T21:39:18.633Z,8.60
2022-09-22T21:42:22.888Z,9.00
2022-09-22T21:45:27.792Z,9.27
2022-09-22T21:48:36.121Z,8.93
2022-09-22T21:51:43.247Z,8.77
2022-09-22T21:54:47.745Z,8.45
2022-09-22T21:57:53.074Z,8.40
2022-09-22T22:00:58.388Z,8.27
2022-09-22T22:04:08.032Z,7.38
2022-09-22T22:07:14.325Z,6.03
2022-09-22T22:10:19.147Z,6.15
2022-09-22T22:13:23.698Z,4.70
2022-09-22T22:16:34.929Z,5.53
2022-09-22T22:19:39.297Z,5.38
2022-09-22T22:22:43.610Z,4.53
2022-09-22T22:25:57.947Z,4.40
2022-09-22T22:29:02.869Z,5.22
2022-09-22T22:32:10.252Z,4.53
2022-09-22T22:35:15.061Z,4.55
2022-09-22T22:38:21.471Z,3.78
2022-09-22T22:41:26.104Z,3.72
2022-09-22T22:44:30.904Z,3.58
2022-09-22T22:47:35.458Z,5.10
2022-09-22T22:50:41.079Z,5.15
2022-09-22T22:53:46.142Z,5.32
2022-09-22T22:56:51.580Z,5.47
2022-09-22T22:59:57.420Z,6.18
2022-09-22T23:03:01.974Z,6.03
2022-09-22T23:06:09.799Z,5.30
2022-09-22T23:09:16.711Z,4.63
2022-09-22T23:12:21.269Z,3.78
2022-09-22T23:15:26.906Z,3.35
2022-09-22T23:18:34.115Z,4.93
2022-09-22T23:21:39.081Z,3.53
2022-09-22T23:24:43.869Z,3.08
2022-09-22T23:27:48.517Z,4.75
2022-09-22T23:31:04.563Z,3.10
2022-09-22T23:34:09.241Z,2.25
2022-09-22T23:37:13.500Z,3.53
2022-09-22T23:40:17.886Z,1.60
2022-09-22T23:43:23.694Z,2.50
2022-09-22T23:46:28.137Z,1.88
2022-09-22T23:49:32.872Z,2.45
2022-09-22T23:52:38.076Z,2.60
2022-09-22T23:55:42.719Z,2.42
2022-09-22T23:58:47.530Z,1.90
